Time;durP1;ratioP1;P1;durP2;ratioP2;P2;SDS_P1;SDS_P2;PMS_P1;PMS_P2;Temp;Humidity;BMP_temperature;BMP_pressure;BME280_temperature;BME280_humidity;BME280_pressure;Samples;Min_cycle;Max_cycle;Signal;HPM_P1;HPM_P2
2022/02/28 00:00:42;;;;;;;3.88;0.73;;;21.80;80.10;;;;;;5010862;28;20065;-76
2022/02/28 00:03:08;;;;;;;1.00;0.50;;;21.80;80.30;;;;;;5011421;28;20120;-76
2022/02/28 00:05:36;;;;;;;0.93;0.50;;;21.80;80.30;;;;;;5011030;28;20542;-76
2022/02/28 00:08:02;;;;;;;0.95;0.60;;;21.80;80.30;;;;;;5023603;28;20111;-75
2022/02/28 00:10:28;;;;;;;0.85;0.55;;;21.80;80.40;;;;;;5010707;28;20446;-76
2022/02/28 00:12:53;;;;;;;1.45;0.60;;;21.70;80.30;;;;;;5010558;28;20025;-76
2022/02/28 00:15:19;;;;;;;1.70;1.05;;;21.80;80.40;;;;;;5006609;28;20040;-75
2022/02/28 00:17:46;;;;;;;1.83;0.73;;;21.70;80.40;;;;;;5010670;28;21227;-76
2022/02/28 00:20:13;;;;;;;3.67;1.15;;;21.70;80.50;;;;;;5010983;28;20057;-76
2022/02/28 00:22:40;;;;;;;0.70;0.43;;;21.70;80.40;;;;;;5009154;28;20911;-76
2022/02/28 00:25:07;;;;;;;0.80;0.40;;;21.70;80.40;;;;;;5012170;28;20030;-75
2022/02/28 00:27:33;;;;;;;0.77;0.50;;;21.70;80.40;;;;;;5024059;28;20044;-75
2022/02/28 00:29:58;;;;;;;0.90;0.52;;;21.70;80.50;;;;;;5014524;28;20034;-76
2022/02/28 00:32:25;;;;;;;1.73;0.85;;;21.70;81.10;;;;;;5015286;28;20057;-76
2022/02/28 00:34:51;;;;;;;1.80;0.63;;;21.70;80.50;;;;;;5017204;28;20455;-76
2022/02/28 00:37:17;;;;;;;1.00;0.63;;;21.70;80.50;;;;;;5025722;28;20091;-75
2022/02/28 00:39:43;;;;;;;2.85;0.95;;;21.70;80.50;;;;;;5015652;28;20045;-76
2022/02/28 00:42:10;;;;;;;3.88;0.95;;;21.70;80.50;;;;;;5015713;28;20029;-75
2022/02/28 00:44:36;;;;;;;1.02;0.52;;;21.70;80.50;;;;;;5015610;28;20022;-75
2022/02/28 00:47:02;;;;;;;3.58;0.57;;;21.70;80.60;;;;;;5015580;28;20033;-76
2022/02/28 00:49:29;;;;;;;1.05;0.75;;;21.70;80.60;;;;;;5023857;28;20033;-76
2022/02/28 00:52:00;;;;;;;1.08;0.60;;;21.60;80.50;;;;;;5016679;28;21022;-75
2022/02/28 00:54:27;;;;;;;0.70;0.38;;;21.60;80.60;;;;;;5015079;28;20121;-76
2022/02/28 00:56:54;;;;;;;2.05;0.70;;;21.60;81.20;;;;;;5013311;28;20022;-75
2022/02/28 00:59:19;;;;;;;1.05;0.60;;;21.60;80.60;;;;;;5013607;28;20034;-76
2022/02/28 01:01:45;;;;;;;0.80;0.70;;;21.60;80.70;;;;;;5025634;28;20466;-75
2022/02/28 01:04:14;;;;;;;0.50;0.30;;;21.60;80.60;;;;;;5027715;28;20044;-76
2022/02/28 01:06:42;;;;;;;1.38;0.50;;;21.60;80.70;;;;;;5011355;28;20343;-75
2022/02/28 01:09:07;;;;;;;0.95;0.40;;;21.60;80.70;;;;;;5008534;28;20054;-75
2022/02/28 01:11:33;;;;;;;1.15;0.50;;;21.60;80.70;;;;;;5014125;28;20045;-76
2022/02/28 01:14:02;;;;;;;0.65;0.50;;;21.50;81.40;;;;;;5010099;28;20030;-75
2022/02/28 01:16:28;;;;;;;0.82;0.30;;;21.50;80.80;;;;;;5015696;28;20113;-75
2022/02/28 01:18:53;;;;;;;1.15;0.63;;;21.50;80.90;;;;;;5014637;28;20112;-75
2022/02/28 01:21:21;;;;;;;1.15;0.50;;;21.50;80.90;;;;;;5014071;28;20053;-76
2022/02/28 01:23:49;;;;;;;1.02;0.68;;;21.50;80.90;;;;;;5013881;28;20434;-75
2022/02/28 01:26:15;;;;;;;1.33;0.60;;;21.50;80.90;;;;;;5012010;28;20061;-75
2022/02/28 01:28:40;;;;;;;1.67;0.60;;;21.50;80.90;;;;;;5013592;28;21682;-75
2022/02/28 01:31:06;;;;;;;1.75;0.65;;;21.50;80.90;;;;;;5009508;28;20025;-75
2022/02/28 01:33:33;;;;;;;1.02;0.50;;;21.50;81.00;;;;;;5015097;28;20474;-75
2022/02/28 01:36:01;;;;;;;0.80;0.50;;;21.40;81.00;;;;;;5014073;28;20037;-76
2022/02/28 01:38:27;;;;;;;0.82;0.60;;;21.40;81.10;;;;;;5012677;28;20386;-76
2022/02/28 01:40:53;;;;;;;0.85;0.40;;;21.40;81.10;;;;;;5015087;28;20119;-76
2022/02/28 01:43:19;;;;;;;0.75;0.38;;;21.40;81.10;;;;;;5026133;28;20083;-76
2022/02/28 01:45:44;;;;;;;1.90;0.57;;;21.40;81.10;;;;;;5015099;28;20030;-76
2022/02/28 01:48:10;;;;;;;1.15;0.60;;;21.40;81.10;;;;;;5013528;28;20472;-75
2022/02/28 01:50:36;;;;;;;1.10;0.60;;;21.40;81.20;;;;;;5031357;28;20032;-75
2022/02/28 01:53:03;;;;;;;0.73;0.30;;;;;;;;;;5014672;28;20033;-75
2022/02/28 01:55:29;;;;;;;1.33;0.45;;;21.40;80.70;;;;;;5024929;28;20026;-75
2022/02/28 01:57:55;;;;;;;1.33;0.70;;;21.40;81.30;;;;;;5015049;28;20029;-75
2022/02/28 02:00:24;;;;;;;1.13;0.57;;;21.30;81.30;;;;;;5012774;28;20558;-75
2022/02/28 02:02:50;;;;;;;1.45;0.63;;;21.30;81.30;;;;;;5014388;28;20372;-75
2022/02/28 02:05:16;;;;;;;1.40;0.70;;;21.40;81.30;;;;;;5013519;28;20034;-75
2022/02/28 02:07:41;;;;;;;1.50;0.73;;;21.30;81.20;;;;;;5014985;28;20121;-76
2022/02/28 02:10:09;;;;;;;2.40;0.85;;;21.30;81.30;;;;;;5013493;28;20084;-76
2022/02/28 02:12:35;;;;;;;0.82;0.52;;;21.30;81.40;;;;;;5015448;28;20927;-75
2022/02/28 02:15:01;;;;;;;3.70;0.82;;;21.30;81.40;;;;;;5012915;28;20517;-75
2022/02/28 02:17:27;;;;;;;0.60;0.60;;;21.30;81.50;;;;;;5014382;28;20021;-76
2022/02/28 02:19:57;;;;;;;1.52;0.65;;;21.30;81.40;;;;;;5013543;28;20347;-76
2022/02/28 02:22:23;;;;;;;1.33;0.50;;;21.30;81.50;;;;;;5028027;28;20022;-76
2022/02/28 02:24:49;;;;;;;1.27;0.70;;;21.20;81.50;;;;;;5008435;28;20022;-75
2022/02/28 02:27:15;;;;;;;1.17;0.50;;;21.20;81.50;;;;;;5028784;28;20026;-75
2022/02/28 02:29:41;;;;;;;1.40;0.63;;;21.20;81.50;;;;;;5012566;28;20519;-75
2022/02/28 02:32:11;;;;;;;0.55;0.45;;;21.20;81.50;;;;;;5025024;28;20393;-76
2022/02/28 02:34:37;;;;;;;1.17;0.40;;;21.20;81.60;;;;;;5011134;28;20022;-76
2022/02/28 02:37:03;;;;;;;1.52;0.47;;;21.20;81.60;;;;;;5014831;28;20045;-75
2022/02/28 02:39:29;;;;;;;0.57;0.40;;;21.20;81.60;;;;;;5012452;28;20030;-76
2022/02/28 02:41:55;;;;;;;0.68;0.50;;;21.20;81.70;;;;;;5012575;28;20370;-76
2022/02/28 02:44:20;;;;;;;1.00;0.40;;;21.20;81.70;;;;;;5025568;28;20034;-74
2022/02/28 02:46:47;;;;;;;2.13;0.70;;;21.10;81.60;;;;;;5011806;28;20442;-75
2022/02/28 02:49:19;;;;;;;1.05;0.65;;;21.20;81.70;;;;;;5011119;28;20857;-75
2022/02/28 02:51:44;;;;;;;0.68;0.43;;;21.10;81.70;;;;;;5023863;28;20496;-75
2022/02/28 02:54:12;;;;;;;1.48;0.55;;;21.10;81.70;;;;;;5015646;28;20061;-75
2022/02/28 02:56:38;;;;;;;2.15;0.40;;;21.10;81.80;;;;;;5007157;28;20034;-75
2022/02/28 02:59:04;;;;;;;1.10;0.52;;;21.10;81.70;;;;;;5013655;28;20041;-76
2022/02/28 03:01:30;;;;;;;1.42;0.70;;;21.10;81.70;;;;;;5009896;28;20034;-75
2022/02/28 03:03:59;;;;;;;1.15;0.60;;;21.10;81.80;;;;;;5011837;28;20041;-76
2022/02/28 03:06:27;;;;;;;1.80;0.60;;;21.10;81.80;;;;;;5010559;28;20078;-75
2022/02/28 03:08:54;;;;;;;1.33;0.60;;;21.10;81.80;;;;;;5007208;28;20036;-75
2022/02/28 03:11:22;;;;;;;1.00;0.40;;;21.10;82.00;;;;;;5013905;28;20030;-76
2022/02/28 03:13:48;;;;;;;1.05;0.60;;;21.00;81.90;;;;;;5014207;28;20038;-76
2022/02/28 03:16:16;;;;;;;0.82;0.70;;;21.00;81.90;;;;;;5012053;28;20505;-76
2022/02/28 03:18:43;;;;;;;0.85;0.50;;;21.00;82.00;;;;;;5013028;28;20034;-76
2022/02/28 03:21:09;;;;;;;4.45;0.50;;;21.00;82.00;;;;;;5012836;28;20089;-75
2022/02/28 03:23:42;;;;;;;1.80;0.73;;;21.00;82.00;;;;;;5011587;28;20500;-76
2022/02/28 03:26:08;;;;;;;0.70;0.60;;;21.00;82.10;;;;;;5024882;28;20029;-75
2022/02/28 03:28:35;;;;;;;0.57;0.30;;;21.00;82.00;;;;;;5011052;28;20030;-76
2022/02/28 03:31:02;;;;;;;0.70;0.55;;;21.00;82.00;;;;;;5012174;28;20030;-75
2022/02/28 03:33:27;;;;;;;0.75;0.40;;;21.00;82.10;;;;;;5012623;28;20026;-74
2022/02/28 03:35:53;;;;;;;1.33;0.60;;;21.00;82.10;;;;;;5007357;28;20553;-75
2022/02/28 03:38:21;;;;;;;0.60;0.40;;;21.00;82.10;;;;;;5011295;28;20029;-76
2022/02/28 03:40:48;;;;;;;0.47;0.45;;;21.00;82.10;;;;;;5011816;28;20030;-75
2022/02/28 03:43:16;;;;;;;0.55;0.40;;;21.00;82.10;;;;;;5011458;28;20025;-76
2022/02/28 03:45:41;;;;;;;0.88;0.50;;;20.90;82.10;;;;;;5014315;28;20029;-76
2022/02/28 03:48:09;;;;;;;1.17;0.90;;;20.90;82.10;;;;;;5010792;28;20041;-76
2022/02/28 03:50:35;;;;;;;0.38;0.30;;;20.90;82.20;;;;;;5024973;28;20365;-76
2022/02/28 03:53:01;;;;;;;0.80;0.40;;;20.90;82.20;;;;;;5009645;28;20053;-75
2022/02/28 03:55:29;;;;;;;1.25;0.50;;;20.90;82.20;;;;;;5012492;28;20034;-75
2022/02/28 03:57:54;;;;;;;1.08;0.60;;;20.90;82.90;;;;;;5030658;28;20414;-75
2022/02/28 04:00:20;;;;;;;2.85;0.73;;;20.90;82.30;;;;;;5010632;28;20021;-75
2022/02/28 04:02:46;;;;;;;1.02;0.68;;;20.90;82.30;;;;;;5012513;28;20091;-75
2022/02/28 04:05:12;;;;;;;0.70;0.50;;;20.80;82.30;;;;;;5011694;28;20117;-76
2022/02/28 04:07:39;;;;;;;0.50;0.50;;;20.80;82.30;;;;;;5011974;28;20037;-76
2022/02/28 04:10:06;;;;;;;0.70;0.40;;;20.90;83.00;;;;;;5007623;28;20068;-75
2022/02/28 04:12:32;;;;;;;0.32;0.32;;;20.90;82.40;;;;;;5012431;28;20041;-75
2022/02/28 04:14:57;;;;;;;1.17;0.52;;;20.90;82.40;;;;;;5011846;28;20045;-76
2022/02/28 04:17:23;;;;;;;1.45;0.60;;;20.90;82.40;;;;;;5010301;28;20045;-75
2022/02/28 04:19:49;;;;;;;1.20;0.65;;;20.80;82.40;;;;;;5011017;28;20621;-75
2022/02/28 04:22:15;;;;;;;0.70;0.50;;;20.80;82.40;;;;;;5011812;28;20037;-76
2022/02/28 04:24:40;;;;;;;0.63;0.40;;;20.80;82.40;;;;;;5011419;28;20030;-76
2022/02/28 04:27:08;;;;;;;0.85;0.50;;;20.80;82.50;;;;;;5013211;28;20095;-75
2022/02/28 04:29:34;;;;;;;0.68;0.45;;;20.80;82.50;;;;;;5012768;28;20034;-75
2022/02/28 04:32:03;;;;;;;0.63;0.40;;;20.80;82.60;;;;;;5013393;28;20034;-76
2022/02/28 04:34:29;;;;;;;0.45;0.30;;;20.80;82.60;;;;;;5011379;28;20117;-76
2022/02/28 04:36:54;;;;;;;0.40;0.30;;;20.80;82.60;;;;;;5010355;28;20177;-76
2022/02/28 04:39:20;;;;;;;0.88;0.60;;;20.80;82.60;;;;;;5011988;28;20030;-75
2022/02/28 04:41:46;;;;;;;0.70;0.50;;;20.80;82.60;;;;;;5012800;28;20037;-76
2022/02/28 04:44:11;;;;;;;0.65;0.45;;;20.80;82.70;;;;;;5012813;28;20029;-76
2022/02/28 04:46:39;;;;;;;0.35;0.30;;;20.70;82.60;;;;;;5013341;28;20038;-76
2022/02/28 04:49:05;;;;;;;1.42;0.70;;;20.70;82.60;;;;;;5010941;28;20477;-76
2022/02/28 04:51:30;;;;;;;0.88;0.50;;;20.70;82.70;;;;;;5008242;28;20030;-75
2022/02/28 04:53:56;;;;;;;0.57;0.40;;;20.70;82.70;;;;;;5011291;28;20481;-76
2022/02/28 04:56:21;;;;;;;0.90;0.65;;;20.70;82.70;;;;;;5011252;28;20029;-76
2022/02/28 04:58:47;;;;;;;0.82;0.52;;;20.70;82.80;;;;;;5011410;28;20029;-75
2022/02/28 05:01:15;;;;;;;0.70;0.50;;;20.70;82.80;;;;;;5009784;28;20048;-75
2022/02/28 05:03:41;;;;;;;0.85;0.50;;;20.70;83.00;;;;;;5011902;28;20446;-74
2022/02/28 05:06:06;;;;;;;0.90;0.40;;;20.70;82.90;;;;;;5012209;28;20034;-76
2022/02/28 05:08:34;;;;;;;1.63;0.60;;;20.70;82.90;;;;;;5011899;28;20121;-76
2022/02/28 05:11:00;;;;;;;0.47;0.30;;;20.70;82.90;;;;;;5008344;28;20128;-76
2022/02/28 05:13:31;;;;;;;1.35;0.40;;;20.70;83.00;;;;;;5013881;28;20407;-76
2022/02/28 05:15:57;;;;;;;0.52;0.32;;;20.70;83.00;;;;;;5030583;28;20060;-76
2022/02/28 05:18:24;;;;;;;0.60;0.50;;;20.80;83.00;;;;;;5031367;28;20038;-75
2022/02/28 05:20:50;;;;;;;1.27;0.60;;;20.70;83.00;;;;;;5013559;28;20065;-75
2022/02/28 05:23:16;;;;;;;1.27;0.65;;;20.70;83.00;;;;;;5014892;28;20485;-75
2022/02/28 05:25:41;;;;;;;2.03;0.57;;;20.70;83.00;;;;;;5014833;28;20095;-76
2022/02/28 05:28:09;;;;;;;0.95;0.60;;;20.70;83.00;;;;;;5014272;28;20030;-75
2022/02/28 05:30:35;;;;;;;0.30;0.28;;;20.70;83.00;;;;;;5009056;28;20037;-76
2022/02/28 05:33:00;;;;;;;0.60;0.30;;;20.80;83.10;;;;;;5027278;28;20029;-75
2022/02/28 05:35:26;;;;;;;0.63;0.50;;;20.70;83.00;;;;;;5013393;28;20029;-75
2022/02/28 05:37:54;;;;;;;0.70;0.32;;;20.80;83.00;;;;;;5014954;28;20038;-76
2022/02/28 05:40:20;;;;;;;1.15;0.45;;;20.80;83.00;;;;;;5014679;28;20052;-76
2022/02/28 05:42:46;;;;;;;0.57;0.35;;;20.80;82.90;;;;;;5012829;28;20030;-75
2022/02/28 05:45:14;;;;;;;0.80;0.55;;;20.80;82.80;;;;;;5026644;28;20125;-75
2022/02/28 05:47:42;;;;;;;1.52;0.60;;;20.90;82.80;;;;;;5008231;28;20041;-76
2022/02/28 05:50:10;;;;;;;0.90;0.40;;;20.80;82.70;;;;;;5014070;28;20030;-76
2022/02/28 05:52:36;;;;;;;1.30;0.57;;;20.80;82.70;;;;;;5009229;28;20029;-75
2022/02/28 05:55:02;;;;;;;0.93;0.40;;;20.80;82.50;;;;;;5011797;28;20365;-75
2022/02/28 05:57:27;;;;;;;0.73;0.40;;;20.90;82.60;;;;;;5013482;28;20037;-76
2022/02/28 05:59:55;;;;;;;0.75;0.57;;;20.80;82.60;;;;;;5015496;28;20123;-76
2022/02/28 06:02:21;;;;;;;0.55;0.40;;;20.90;82.50;;;;;;5029509;28;20120;-76
2022/02/28 06:04:46;;;;;;;0.93;0.47;;;20.80;82.40;;;;;;5013881;28;20101;-75
2022/02/28 06:07:14;;;;;;;0.88;0.50;;;20.90;82.50;;;;;;5015420;28;21576;-76
2022/02/28 06:09:41;;;;;;;1.23;0.52;;;20.90;82.40;;;;;;5014719;28;20855;-75
2022/02/28 06:12:08;;;;;;;0.75;0.43;;;20.90;82.50;;;;;;5013059;28;20022;-76
2022/02/28 06:14:34;;;;;;;1.55;0.40;;;20.90;82.50;;;;;;5013066;28;20543;-75
2022/02/28 06:16:59;;;;;;;0.50;0.50;;;20.90;82.40;;;;;;5014330;28;20095;-76
2022/02/28 06:19:26;;;;;;;0.77;0.50;;;20.90;82.50;;;;;;5014567;28;20045;-75
2022/02/28 06:21:51;;;;;;;0.85;0.40;;;20.90;82.50;;;;;;5014551;28;21615;-76
2022/02/28 06:24:19;;;;;;;0.50;0.40;;;21.00;82.50;;;;;;5013986;28;20029;-76
2022/02/28 06:26:45;;;;;;;0.68;0.50;;;20.90;82.50;;;;;;5025392;28;20103;-76
2022/02/28 06:29:10;;;;;;;0.63;0.40;;;20.90;82.40;;;;;;5014893;28;20069;-76
2022/02/28 06:31:43;;;;;;;0.80;0.65;;;21.00;82.50;;;;;;5012915;28;20025;-76
2022/02/28 06:34:09;;;;;;;1.55;0.50;;;21.00;82.50;;;;;;5014471;28;20092;-75
2022/02/28 06:36:35;;;;;;;0.75;0.47;;;21.00;82.50;;;;;;5013040;28;20092;-76
2022/02/28 06:39:04;;;;;;;0.43;0.35;;;21.00;82.50;;;;;;5013197;28;20029;-76
2022/02/28 06:41:29;;;;;;;0.50;0.40;;;21.00;82.50;;;;;;5013686;28;20034;-76
2022/02/28 06:43:55;;;;;;;1.08;0.35;;;21.00;83.10;;;;;;5012296;28;20030;-76
2022/02/28 06:46:23;;;;;;;0.82;0.70;;;21.00;82.50;;;;;;5012168;28;20470;-75
2022/02/28 06:48:49;;;;;;;1.42;0.63;;;21.00;82.50;;;;;;5012653;28;20117;-75
2022/02/28 06:51:15;;;;;;;0.70;0.45;;;21.00;82.40;;;;;;5028627;28;20034;-75
2022/02/28 06:53:42;;;;;;;1.30;0.50;;;21.00;82.50;;;;;;5007494;28;20033;-75
2022/02/28 06:56:08;;;;;;;0.73;0.30;;;21.10;82.50;;;;;;5011437;28;20026;-76
2022/02/28 06:58:34;;;;;;;0.28;0.20;;;21.10;82.50;;;;;;5012686;28;20056;-76
2022/02/28 07:01:00;;;;;;;0.57;0.40;;;21.10;82.50;;;;;;5012656;28;20036;-76
2022/02/28 07:03:25;;;;;;;0.95;0.40;;;21.10;82.50;;;;;;5013871;28;20095;-76
2022/02/28 07:05:53;;;;;;;0.82;0.30;;;21.10;82.40;;;;;;5012173;28;20034;-75
2022/02/28 07:08:19;;;;;;;0.63;0.40;;;21.10;82.50;;;;;;5012576;28;20045;-77
2022/02/28 07:10:45;;;;;;;0.47;0.30;;;21.10;82.50;;;;;;5013192;28;20030;-76
2022/02/28 07:13:12;;;;;;;0.93;0.55;;;21.20;82.50;;;;;;5011129;28;20022;-77
2022/02/28 07:15:43;;;;;;;1.27;0.60;;;21.20;82.50;;;;;;5011454;28;20347;-78
2022/02/28 07:18:08;;;;;;;0.50;0.38;;;21.20;82.50;;;;;;5012559;28;20022;-76
2022/02/28 07:20:37;;;;;;;0.90;0.50;;;21.20;82.50;;;;;;5013911;28;20050;-76
2022/02/28 07:23:04;;;;;;;1.80;0.40;;;21.20;82.50;;;;;;5025448;28;20036;-77
2022/02/28 07:25:30;;;;;;;1.55;0.55;;;21.30;82.60;;;;;;5013949;28;20113;-77
2022/02/28 07:27:56;;;;;;;1.27;0.52;;;21.30;82.50;;;;;;5012147;28;20128;-76
2022/02/28 07:30:21;;;;;;;1.45;0.45;;;21.30;82.50;;;;;;5012714;28;20029;-76
2022/02/28 07:32:48;;;;;;;0.47;0.30;;;21.30;82.50;;;;;;5014156;28;20033;-76
2022/02/28 07:35:15;;;;;;;0.75;0.28;;;21.30;82.60;;;;;;5012090;28;20030;-75
2022/02/28 07:37:41;;;;;;;0.93;0.40;;;21.30;82.50;;;;;;5015624;28;20038;-77
2022/02/28 07:40:08;;;;;;;2.60;0.50;;;21.30;82.50;;;;;;5011894;28;20029;-78
2022/02/28 07:42:34;;;;;;;1.00;0.43;;;21.30;82.60;;;;;;5011912;28;20124;-77
2022/02/28 07:45:00;;;;;;;1.02;0.40;;;21.30;82.70;;;;;;5022938;28;20045;-75
2022/02/28 07:47:26;;;;;;;1.17;0.50;;;21.40;82.70;;;;;;5012231;28;20045;-75
2022/02/28 07:49:52;;;;;;;0.63;0.47;;;21.40;82.70;;;;;;5012912;28;20029;-76
2022/02/28 07:52:20;;;;;;;1.42;0.60;;;21.40;82.70;;;;;;5012549;28;20025;-76
2022/02/28 07:54:45;;;;;;;0.52;0.40;;;21.40;82.80;;;;;;5010163;28;20112;-75
2022/02/28 07:57:11;;;;;;;6.63;0.80;;;21.40;82.80;;;;;;5012314;28;20962;-76
2022/02/28 07:59:36;;;;;;;1.10;0.50;;;21.40;82.90;;;;;;5014394;28;20029;-76
2022/02/28 08:02:02;;;;;;;1.15;0.30;;;21.40;82.90;;;;;;5013283;28;20140;-76
2022/02/28 08:04:30;;;;;;;0.85;0.50;;;21.40;82.90;;;;;;5009807;28;20026;-77
2022/02/28 08:06:55;;;;;;;1.13;0.47;;;21.50;83.00;;;;;;5010804;28;20030;-77
2022/02/28 08:09:24;;;;;;;0.50;0.43;;;21.50;83.00;;;;;;5013516;28;20034;-77
2022/02/28 08:11:50;;;;;;;0.95;0.35;;;21.50;83.10;;;;;;5014053;28;20470;-76
2022/02/28 08:14:15;;;;;;;0.82;0.32;;;21.50;83.10;;;;;;5011978;28;20030;-75
2022/02/28 08:16:41;;;;;;;4.43;0.70;;;21.50;83.00;;;;;;5013171;28;20037;-77
2022/02/28 08:19:07;;;;;;;0.88;0.50;;;21.60;83.10;;;;;;5012113;28;20025;-76
2022/02/28 08:21:32;;;;;;;0.88;0.43;;;21.60;83.10;;;;;;5012010;28;20073;-77
2022/02/28 08:23:58;;;;;;;1.35;0.57;;;21.60;83.10;;;;;;5012694;28;20533;-78
2022/02/28 08:26:24;;;;;;;2.03;0.70;;;21.60;83.00;;;;;;5011593;28;20048;-76
2022/02/28 08:28:49;;;;;;;2.35;0.90;;;21.60;82.90;;;;;;5023997;28;20138;-76
2022/02/28 08:31:17;;;;;;;1.60;0.65;;;21.60;82.80;;;;;;5010741;28;20472;-76
2022/02/28 08:33:42;;;;;;;2.97;0.70;;;21.70;82.80;;;;;;5011162;28;20041;-77
2022/02/28 08:36:08;;;;;;;1.80;0.68;;;21.60;82.60;;;;;;5011674;28;20034;-76
2022/02/28 08:38:34;;;;;;;3.05;0.80;;;21.60;82.60;;;;;;5011105;28;20443;-76
2022/02/28 08:40:59;;;;;;;1.88;0.95;;;21.70;82.60;;;;;;5011219;28;20034;-76
2022/02/28 08:43:26;;;;;;;4.35;0.47;;;21.70;82.60;;;;;;5011319;28;20402;-76
2022/02/28 08:45:52;;;;;;;2.83;1.02;;;21.70;82.50;;;;;;5010803;28;20073;-76
2022/02/28 08:48:18;;;;;;;1.55;0.80;;;21.70;83.10;;;;;;5027187;28;20110;-75
2022/02/28 08:50:43;;;;;;;1.35;0.80;;;21.70;82.40;;;;;;5011013;28;20435;-77
2022/02/28 08:53:09;;;;;;;1.63;0.55;;;21.70;82.30;;;;;;5014965;28;20033;-76
2022/02/28 08:55:35;;;;;;;7.78;0.70;;;21.80;82.40;;;;;;5017369;28;20338;-76
2022/02/28 08:58:00;;;;;;;1.98;0.73;;;21.80;82.30;;;;;;5013703;28;20045;-76
2022/02/28 09:00:29;;;;;;;1.00;0.70;;;21.80;82.30;;;;;;5014420;28;20034;-76
2022/02/28 09:02:55;;;;;;;2.83;0.80;;;21.80;82.30;;;;;;5015926;28;20468;-76
2022/02/28 09:05:20;;;;;;;1.23;0.43;;;21.80;82.30;;;;;;5016106;28;20030;-76
2022/02/28 09:07:46;;;;;;;1.33;0.73;;;21.80;82.30;;;;;;5009123;28;20794;-76
2022/02/28 09:10:12;;;;;;;1.20;0.80;;;21.80;82.20;;;;;;5014274;28;20472;-77
2022/02/28 09:12:38;;;;;;;1.92;0.80;;;21.80;82.20;;;;;;5015182;28;20029;-77
2022/02/28 09:15:07;;;;;;;1.88;0.95;;;21.90;82.30;;;;;;5011219;28;20967;-77
2022/02/28 09:17:37;;;;;;;3.90;1.23;;;21.80;82.20;;;;;;5015342;28;20033;-77
2022/02/28 09:20:07;;;;;;;1.35;0.77;;;21.80;82.10;;;;;;5028429;28;20517;-77
2022/02/28 09:22:33;;;;;;;3.92;0.70;;;21.80;82.10;;;;;;5015236;28;20108;-76
2022/02/28 09:24:59;;;;;;;2.13;0.77;;;21.90;82.10;;;;;;5016806;28;20355;-76
2022/02/28 09:27:26;;;;;;;1.80;0.85;;;21.90;82.10;;;;;;5016101;28;20033;-78
2022/02/28 09:29:52;;;;;;;4.93;0.88;;;21.90;82.00;;;;;;5014478;28;20192;-77
2022/02/28 09:32:17;;;;;;;1.77;0.65;;;21.90;82.00;;;;;;5015706;28;20536;-77
2022/02/28 09:34:43;;;;;;;3.10;1.42;;;21.90;81.90;;;;;;5015128;28;20474;-77
2022/02/28 09:37:08;;;;;;;1.70;0.60;;;21.90;81.90;;;;;;5015885;28;20018;-77
2022/02/28 09:39:35;;;;;;;10.65;1.13;;;21.90;81.80;;;;;;5015888;28;20044;-77
2022/02/28 09:42:01;;;;;;;1.80;0.60;;;21.90;81.80;;;;;;5015097;28;20022;-77
2022/02/28 09:44:28;;;;;;;5.60;0.80;;;21.90;81.80;;;;;;5016745;28;21732;-77
2022/02/28 09:46:54;;;;;;;2.92;0.93;;;22.00;81.80;;;;;;5015641;28;20021;-77
2022/02/28 09:49:20;;;;;;;12.00;1.35;;;22.00;81.80;;;;;;5014449;28;20021;-76
2022/02/28 09:51:46;;;;;;;7.35;0.80;;;22.00;81.80;;;;;;5013373;28;20045;-76
2022/02/28 09:54:11;;;;;;;3.72;0.75;;;22.00;81.80;;;;;;5016146;28;20033;-77
2022/02/28 09:56:38;;;;;;;2.08;0.60;;;22.00;81.80;;;;;;5023603;28;20061;-77
2022/02/28 09:59:04;;;;;;;5.10;0.93;;;22.10;81.80;;;;;;5025125;28;20112;-79
2022/02/28 10:01:30;;;;;;;2.58;0.82;;;22.00;81.90;;;;;;5016543;28;20030;-77
2022/02/28 10:03:56;;;;;;;3.90;1.00;;;22.10;82.10;;;;;;5011143;28;20088;-76
2022/02/28 10:06:22;;;;;;;3.45;0.80;;;22.10;82.10;;;;;;5032700;28;20143;-78
2022/02/28 10:08:53;;;;;;;2.28;0.90;;;22.10;82.20;;;;;;5042668;28;20041;-78
2022/02/28 10:11:27;;;;;;;2.58;0.70;;;22.10;82.10;;;;;;5021233;28;20051;-78
2022/02/28 10:13:56;;;;;;;0.73;0.50;;;22.10;82.00;;;;;;5017901;28;20025;-77
2022/02/28 10:16:34;;;;;;;2.85;0.93;;;22.20;82.10;;;;;;5020689;28;20022;-79
2022/02/28 10:19:03;;;;;;;1.92;0.65;;;22.10;82.10;;;;;;5018515;28;20034;-78
2022/02/28 10:21:44;;;;;;;4.40;0.80;;;22.20;82.10;;;;;;5030436;28;20038;-78
2022/02/28 10:24:17;;;;;;;4.00;0.80;;;22.20;82.00;;;;;;5030657;28;20033;-78
2022/02/28 10:27:00;;;;;;;2.97;0.60;;;22.20;82.00;;;;;;5016791;28;20036;-79
2022/02/28 10:29:27;;;;;;;1.38;0.60;;;22.20;82.00;;;;;;5016589;28;20064;-79
2022/02/28 10:32:00;;;;;;;4.43;1.15;;;22.20;81.90;;;;;;5017700;28;20117;-79
2022/02/28 10:34:30;;;;;;;1.83;0.88;;;22.20;81.90;;;;;;5013121;28;20088;-78
2022/02/28 10:37:00;;;;;;;3.03;1.42;;;22.20;81.90;;;;;;5010118;28;20034;-79
2022/02/28 10:39:27;;;;;;;3.83;1.08;;;22.30;81.90;;;;;;5026952;28;20417;-79
2022/02/28 10:42:00;;;;;;;4.60;0.82;;;22.30;81.80;;;;;;5019610;28;20126;-79
2022/02/28 10:44:25;;;;;;;;;;;22.30;81.70;;;;;;5024180;28;20027;-81
2022/02/28 10:46:54;;;;;;;1.25;0.80;;;22.30;81.60;;;;;;5024588;28;19972;-80
2022/02/28 10:49:27;;;;;;;2.60;0.60;;;22.30;81.60;;;;;;5029336;28;20029;-79
2022/02/28 10:51:58;;;;;;;3.38;0.52;;;22.30;81.60;;;;;;5025890;28;20034;-79
2022/02/28 10:54:29;;;;;;;3.40;1.10;;;22.30;81.60;;;;;;5022270;28;20048;-79
2022/02/28 10:57:03;;;;;;;2.03;0.80;;;22.30;81.60;;;;;;5015166;28;20030;-77
2022/02/28 10:59:38;;;;;;;1.60;0.70;;;22.30;81.60;;;;;;5026547;28;20033;-76
2022/02/28 11:02:04;;;;;;;3.60;0.80;;;22.30;81.50;;;;;;5012589;28;20057;-77
2022/02/28 11:04:35;;;;;;;2.42;0.63;;;22.30;81.40;;;;;;5012814;28;21610;-78
2022/02/28 11:07:02;;;;;;;4.32;1.05;;;22.30;81.40;;;;;;5022767;28;20042;-76
2022/02/28 11:09:46;;;;;;;3.45;0.73;;;22.40;81.40;;;;;;5023719;28;20065;-77
2022/02/28 11:12:33;;;;;;;2.42;1.10;;;22.40;81.40;;;;;;5032928;28;20036;-80
2022/02/28 11:15:06;;;;;;;3.28;0.98;;;22.40;81.40;;;;;;5020584;28;20354;-79
2022/02/28 11:17:34;;;;;;;1.42;0.85;;;22.40;81.30;;;;;;5029825;28;20026;-80
2022/02/28 11:20:08;;;;;;;2.17;0.50;;;22.40;81.30;;;;;;5016527;28;20079;-77
2022/02/28 11:22:38;;;;;;;3.28;1.00;;;22.40;81.20;;;;;;5024344;28;20065;-78
2022/02/28 11:25:05;;;;;;;1.23;0.60;;;22.50;81.30;;;;;;5012197;28;20045;-79
2022/02/28 11:27:33;;;;;;;1.25;0.50;;;22.50;81.20;;;;;;5009175;28;20669;-78
2022/02/28 11:30:03;;;;;;;4.13;1.00;;;22.50;81.10;;;;;;5011944;28;20035;-77
2022/02/28 11:32:30;;;;;;;1.45;0.93;;;22.50;81.00;;;;;;5013029;28;20336;-78
2022/02/28 11:38:45;;;;;;;1.60;0.70;;;22.50;80.70;;;;;;4966478;28;20570;-77
2022/02/28 11:41:39;;;;;;;3.60;0.82;;;22.50;80.60;;;;;;4950826;28;20038;-78
2022/02/28 11:44:26;;;;;;;1.25;0.47;;;22.50;80.60;;;;;;4966970;28;20046;-78
2022/02/28 11:50:15;;;;;;;3.70;0.85;;;22.50;80.50;;;;;;4966549;28;20475;-77
2022/02/28 12:03:26;;;;;;;2.33;0.70;;;22.50;80.30;;;;;;4944119;28;20063;-77
2022/02/28 12:05:51;;;;;;;5.43;1.02;;;22.50;80.30;;;;;;4965687;28;20410;-77
2022/02/28 12:09:02;;;;;;;1.67;0.80;;;22.50;80.30;;;;;;4965619;28;20035;-78
2022/02/28 12:11:30;;;;;;;7.10;0.90;;;22.50;80.20;;;;;;4947061;28;20066;-78
2022/02/28 12:14:03;;;;;;;2.58;0.60;;;22.60;80.30;;;;;;4966015;28;20093;-77
2022/02/28 12:19:32;;;;;;;7.50;1.17;;;22.60;80.20;;;;;;5015618;28;20176;-80
2022/02/28 12:22:03;;;;;;;2.10;0.65;;;22.60;80.10;;;;;;5014591;28;20104;-79
2022/02/28 12:24:54;;;;;;;2.40;0.93;;;22.60;80.20;;;;;;5026892;28;20029;-79
2022/02/28 12:27:36;;;;;;;5.13;0.80;;;22.60;80.20;;;;;;5028994;28;20034;-79
2022/02/28 12:30:36;;;;;;;1.77;0.65;;;22.60;80.30;;;;;;5015000;28;20132;-81
2022/02/28 12:33:02;;;;;;;1.63;0.68;;;22.60;80.30;;;;;;5006401;28;20088;-82
2022/02/28 12:35:52;;;;;;;4.00;0.85;;;22.60;80.30;;;;;;5014839;28;20030;-80
2022/02/28 12:38:19;;;;;;;1.05;0.50;;;22.70;80.30;;;;;;5030483;28;20047;-80
2022/02/28 12:41:00;;;;;;;1.90;0.60;;;22.60;80.20;;;;;;5016166;28;20060;-79
2022/02/28 12:43:28;;;;;;;0.80;0.68;;;22.70;80.30;;;;;;5013040;28;20133;-78
2022/02/28 12:46:00;;;;;;;3.35;0.60;;;22.60;80.30;;;;;;5027406;28;20362;-80
2022/02/28 12:48:27;;;;;;;3.60;0.83;;;22.70;80.30;;;;;;5015359;28;20549;-82
2022/02/28 12:50:59;;;;;;;1.67;1.05;;;22.70;80.20;;;;;;5016817;28;20108;-82
2022/02/28 12:53:30;;;;;;;2.28;0.77;;;22.70;80.20;;;;;;5008729;28;20026;-80
2022/02/28 12:55:58;;;;;;;3.42;1.02;;;22.70;80.20;;;;;;5013095;28;20060;-83
2022/02/28 12:58:30;;;;;;;1.50;0.88;;;22.70;80.10;;;;;;5029853;28;20026;-81
2022/02/28 13:01:13;;;;;;;1.45;0.60;;;22.70;80.00;;;;;;5011537;28;20088;-80
2022/02/28 13:03:42;;;;;;;1.70;0.70;;;22.80;80.00;;;;;;5015206;28;20030;-84
2022/02/28 13:06:09;;;;;;;1.77;0.65;;;22.80;80.70;;;;;;5014960;28;20030;-80
2022/02/28 13:08:43;;;;;;;1.95;1.00;;;22.70;79.90;;;;;;5014057;28;20030;-84
2022/02/28 13:11:20;;;;;;;0.95;0.60;;;22.80;79.90;;;;;;5031342;28;20034;-85